Time;durP1;ratioP1;P1;durP2;ratioP2;P2;SDS_P1;SDS_P2;PMS_P1;PMS_P2;Temp;Humidity;BMP_temperature;BMP_pressure;BME280_temperature;BME280_humidity;BME280_pressure;Samples;Min_cycle;Max_cycle;Signal;HPM_P1;HPM_P2
2022/10/13 08:50:31;;;;;;;57.65;39.72;;;12.40;99.90;;;;;;5169155;27;21050;-49
2022/10/13 08:53:01;;;;;;;57.28;40.22;;;12.50;99.90;;;;;;5097639;27;1261867;-45
2022/10/13 08:55:34;;;;;;;58.55;40.78;;;12.50;99.90;;;;;;5125392;27;20494;-48
2022/10/13 08:58:02;;;;;;;52.88;37.92;;;12.50;99.90;;;;;;5106565;27;20056;-51
2022/10/13 09:03:27;;;;;;;57.78;39.13;;;12.50;99.90;;;;;;5245718;22;20064;-50
2022/10/13 09:06:11;;;;;;;56.72;39.35;;;12.60;99.90;;;;;;5027646;28;20435;-49
2022/10/13 09:08:39;;;;;;;;;;;12.60;99.90;;;;;;5031147;28;20614;-46
2022/10/13 09:11:05;;;;;;;50.00;37.90;;;12.60;99.90;;;;;;5013492;28;19925;-47
2022/10/13 09:13:31;;;;;;;60.22;40.10;;;12.60;99.90;;;;;;5032460;28;20417;-49
2022/10/13 09:15:57;;;;;;;56.20;39.40;;;12.70;99.90;;;;;;5031938;28;20048;-48
2022/10/13 09:21:24;;;;;;;51.63;37.38;;;12.80;99.90;;;;;;4262714;22;20076;-48
2022/10/13 09:23:52;;;;;;;49.95;37.80;;;12.80;99.90;;;;;;5061010;28;20040;-47
2022/10/13 09:26:21;;;;;;;52.88;38.47;;;12.90;99.90;;;;;;5066860;28;20816;-48
2022/10/13 09:28:48;;;;;;;45.08;36.28;;;12.90;99.90;;;;;;5072339;28;20056;-46
2022/10/13 09:31:23;;;;;;;55.05;39.28;;;13.00;99.90;;;;;;5058598;28;20053;-49
2022/10/13 09:34:00;;;;;;;49.30;35.78;;;13.00;99.90;;;;;;5061140;28;20343;-46
2022/10/13 09:36:26;;;;;;;49.53;37.90;;;13.10;99.90;;;;;;5050874;28;20528;-49
2022/10/13 09:39:13;;;;;;;47.33;36.67;;;13.10;99.90;;;;;;5060262;28;20131;-49
2022/10/13 09:41:41;;;;;;;51.90;38.92;;;13.20;99.90;;;;;;5064333;28;20048;-47
2022/10/13 09:44:16;;;;;;;49.20;37.50;;;13.30;99.90;;;;;;5065308;28;20059;-48
2022/10/13 09:46:45;;;;;;;46.80;36.30;;;13.20;99.90;;;;;;5039500;28;20053;-45
2022/10/13 09:49:26;;;;;;;43.30;35.45;;;13.20;99.90;;;;;;5054048;28;20099;-48
2022/10/13 09:52:18;;;;;;;48.50;37.15;;;13.20;99.90;;;;;;5057596;28;20101;-46
2022/10/13 09:54:55;;;;;;;46.85;36.33;;;13.10;99.90;;;;;;5040142;28;20116;-47
2022/10/13 09:57:45;;;;;;;46.13;38.22;;;13.10;99.90;;;;;;5058697;28;20094;-51
2022/10/13 10:00:20;;;;;;;48.30;38.67;;;13.00;99.90;;;;;;4913439;28;20087;-50
2022/10/13 10:02:54;;;;;;;45.97;37.35;;;13.00;99.90;;;;;;4909277;28;20058;-49
2022/10/13 10:05:36;;;;;;;56.13;40.05;;;12.90;99.90;;;;;;4958282;28;20404;-50
2022/10/13 10:08:46;;;;;;;44.47;34.97;;;12.90;99.90;;;;;;5013207;28;20082;-49
2022/10/13 10:11:16;;;;;;;46.63;36.35;;;12.80;99.90;;;;;;5030976;28;20048;-47
2022/10/13 10:13:42;;;;;;;47.60;36.72;;;12.90;99.90;;;;;;5048659;28;20397;-48
2022/10/13 10:16:16;;;;;;;50.53;38.85;;;12.90;99.90;;;;;;5048787;28;20057;-49
2022/10/13 10:18:57;;;;;;;49.00;35.10;;;12.90;99.90;;;;;;5044026;28;20055;-48
2022/10/13 10:21:42;;;;;;;49.20;36.67;;;13.00;99.90;;;;;;5041903;28;20064;-49
2022/10/13 10:24:38;;;;;;;46.33;35.20;;;13.00;99.90;;;;;;5048106;28;20052;-50
2022/10/13 10:27:27;;;;;;;41.75;33.50;;;13.00;99.90;;;;;;5055363;28;20053;-47
2022/10/13 10:30:19;;;;;;;44.90;35.08;;;13.00;99.90;;;;;;5049352;28;20044;-45
2022/10/13 10:32:53;;;;;;;41.75;34.67;;;13.10;99.90;;;;;;5048871;28;20525;-45
2022/10/13 10:35:52;;;;;;;43.72;35.33;;;13.20;99.90;;;;;;5049135;28;20469;-48
2022/10/13 10:38:44;;;;;;;47.08;36.38;;;13.20;99.90;;;;;;5015661;28;20073;-48
2022/10/13 10:41:32;;;;;;;48.67;37.15;;;13.30;99.90;;;;;;5013770;28;20049;-47
2022/10/13 10:44:06;;;;;;;46.83;36.67;;;13.40;99.90;;;;;;5011997;28;20164;-44
2022/10/13 10:46:35;;;;;;;41.30;35.38;;;13.50;99.90;;;;;;5012471;28;20127;-47
2022/10/13 10:49:18;;;;;;;39.55;34.63;;;13.60;99.90;;;;;;5014525;28;20057;-50
2022/10/13 10:51:45;;;;;;;45.63;36.50;;;13.70;99.90;;;;;;4994096;28;20516;-50
2022/10/13 10:54:44;;;;;;;46.15;37.03;;;13.70;99.90;;;;;;4995688;28;20107;-45
2022/10/13 10:57:51;;;;;;;45.75;35.75;;;13.80;99.90;;;;;;5016385;28;20477;-46
2022/10/13 11:00:21;;;;;;;44.60;35.33;;;13.90;99.90;;;;;;4954904;28;20050;-48
2022/10/13 11:03:05;;;;;;;38.38;34.40;;;14.00;99.90;;;;;;4999231;28;20060;-46
2022/10/13 11:05:55;;;;;;;37.85;32.75;;;14.10;99.90;;;;;;5000247;28;20058;-50
2022/10/13 11:08:43;;;;;;;39.20;34.42;;;14.20;99.90;;;;;;4995112;28;20053;-47
2022/10/13 11:11:24;;;;;;;39.25;33.65;;;14.30;99.90;;;;;;5010762;28;20053;-43
2022/10/13 11:14:04;;;;;;;39.35;33.75;;;14.30;99.90;;;;;;5008128;28;20045;-43
2022/10/13 11:16:37;;;;;;;39.88;34.78;;;14.30;99.90;;;;;;5051729;28;20076;-47
2022/10/13 11:19:28;;;;;;;38.78;34.67;;;14.30;99.90;;;;;;5048665;28;20389;-48
2022/10/13 11:21:57;;;;;;;37.35;31.85;;;14.40;99.90;;;;;;5056880;28;20041;-44
2022/10/13 11:24:38;;;;;;;39.58;32.30;;;14.50;99.90;;;;;;5057652;28;20423;-50
2022/10/13 11:27:06;;;;;;;36.97;32.20;;;14.60;99.90;;;;;;5057735;28;20121;-48
2022/10/13 11:29:56;;;;;;;37.20;32.92;;;14.70;99.90;;;;;;5055376;28;20040;-45
2022/10/13 11:32:54;;;;;;;37.10;29.88;;;14.70;99.90;;;;;;5035801;28;20478;-45
2022/10/13 11:35:11;;;;;;;35.53;29.95;;;14.60;99.90;;;;;;5051008;28;20040;-50
2022/10/13 11:38:03;;;;;;;36.90;31.00;;;14.60;99.90;;;;;;5047788;28;20389;-49
2022/10/13 11:40:35;;;;;;;36.13;30.63;;;14.50;99.90;;;;;;5042240;28;20116;-44
2022/10/13 11:43:30;;;;;;;35.22;30.13;;;14.50;99.90;;;;;;5052760;28;20294;-46
2022/10/13 11:46:18;;;;;;;35.92;30.40;;;14.40;99.90;;;;;;5050126;28;20327;-46
2022/10/13 11:48:47;;;;;;;33.28;29.27;;;14.30;99.90;;;;;;5052546;28;20036;-51
2022/10/13 11:51:30;;;;;;;35.17;28.90;;;14.30;99.90;;;;;;5038639;28;20102;-48
2022/10/13 11:54:26;;;;;;;35.63;28.55;;;14.20;99.90;;;;;;5052458;28;20561;-48
2022/10/13 11:56:54;;;;;;;45.95;40.95;;;14.10;99.90;;;;;;5051536;28;20534;-47
2022/10/13 11:59:30;;;;;;;43.15;36.05;;;14.10;99.90;;;;;;5039653;28;20707;-47
2022/10/13 12:02:11;;;;;;;38.53;32.65;;;14.10;99.90;;;;;;5050028;28;20442;-44
2022/10/13 12:04:39;;;;;;;34.50;29.80;;;14.20;99.90;;;;;;5049825;28;20159;-47
2022/10/13 12:07:08;;;;;;;41.15;30.48;;;14.20;99.90;;;;;;5049985;28;20128;-51
2022/10/13 12:09:39;;;;;;;38.70;31.80;;;14.20;99.90;;;;;;5033650;28;20055;-45
2022/10/13 12:12:14;;;;;;;38.85;31.27;;;14.20;99.90;;;;;;5040523;28;20075;-48
2022/10/13 12:14:43;;;;;;;39.42;31.30;;;14.20;99.90;;;;;;5041475;28;20041;-46
2022/10/13 12:17:29;;;;;;;40.88;32.72;;;14.20;99.90;;;;;;5044920;28;20469;-48
2022/10/13 12:19:58;;;;;;;38.92;30.67;;;14.20;99.90;;;;;;5047192;28;20044;-48
2022/10/13 12:22:24;;;;;;;37.75;31.88;;;14.20;99.90;;;;;;5034017;28;20170;-50
2022/10/13 12:25:01;;;;;;;39.80;31.92;;;14.20;99.90;;;;;;5047631;28;20047;-47
2022/10/13 12:27:31;;;;;;;36.75;29.90;;;14.20;99.90;;;;;;5051939;28;20493;-45
2022/10/13 12:29:58;;;;;;;42.00;31.20;;;14.20;99.90;;;;;;5050250;28;20040;-48
2022/10/13 12:32:30;;;;;;;44.50;33.42;;;14.20;99.90;;;;;;5045683;28;20044;-50
2022/10/13 12:35:09;;;;;;;34.20;30.10;;;14.20;99.90;;;;;;5044959;28;20044;-49
2022/10/13 12:37:36;;;;;;;39.90;31.50;;;14.10;99.90;;;;;;5042426;28;20450;-50
2022/10/13 12:40:03;;;;;;;38.85;31.73;;;14.10;99.90;;;;;;5033497;28;20087;-50
2022/10/13 12:42:34;;;;;;;38.70;31.45;;;14.10;99.90;;;;;;5048349;28;20056;-49
2022/10/13 12:45:01;;;;;;;38.80;32.25;;;14.00;99.90;;;;;;5040499;28;20094;-47
2022/10/13 12:47:46;;;;;;;40.25;31.88;;;14.10;99.90;;;;;;5044824;28;20069;-49
2022/10/13 12:50:29;;;;;;;38.80;31.92;;;14.10;99.90;;;;;;5050934;28;20510;-49
2022/10/13 12:53:01;;;;;;;;;;;14.10;99.90;;;;;;5042254;28;20045;-48
2022/10/13 12:55:27;;;;;;;43.55;30.33;;;14.10;99.90;;;;;;5049851;28;20386;-52
2022/10/13 12:57:53;;;;;;;43.70;34.22;;;14.10;99.90;;;;;;5044424;28;20076;-51
2022/10/13 13:00:19;;;;;;;37.72;30.77;;;14.20;99.90;;;;;;5042640;28;20103;-48
2022/10/13 13:03:05;;;;;;;38.55;30.77;;;14.20;99.90;;;;;;5047179;28;20132;-45
2022/10/13 13:05:41;;;;;;;38.78;34.45;;;14.30;99.90;;;;;;5047539;28;20044;-49
2022/10/13 13:08:31;;;;;;;35.00;31.33;;;14.30;99.90;;;;;;5039482;28;20045;-51
2022/10/13 13:11:31;;;;;;;33.78;29.55;;;14.40;99.90;;;;;;5040146;28;20048;-45
2022/10/13 13:14:21;;;;;;;30.55;26.52;;;14.50;99.90;;;;;;5035951;28;20548;-46
2022/10/13 13:17:19;;;;;;;34.58;28.10;;;14.60;99.90;;;;;;5050751;28;20430;-47
2022/10/13 13:19:47;;;;;;;33.63;27.67;;;14.60;99.90;;;;;;5049105;28;20036;-47
2022/10/13 13:22:13;;;;;;;30.05;26.25;;;14.60;99.90;;;;;;5035074;28;20143;-47
2022/10/13 13:24:39;;;;;;;29.92;26.23;;;14.70;99.90;;;;;;5041957;28;20048;-48
2022/10/13 13:27:30;;;;;;;29.38;24.85;;;14.70;99.90;;;;;;5050583;28;20041;-49
2022/10/13 13:29:56;;;;;;;34.25;27.30;;;14.60;99.90;;;;;;5048033;28;20206;-49
2022/10/13 13:32:25;;;;;;;31.75;28.38;;;14.50;99.90;;;;;;5040785;28;20548;-44
2022/10/13 13:34:51;;;;;;;25.25;21.83;;;14.60;99.90;;;;;;5046758;28;20150;-46
2022/10/13 13:37:29;;;;;;;36.45;32.67;;;14.50;99.90;;;;;;5047329;28;20409;-50
2022/10/13 13:39:56;;;;;;;31.15;25.63;;;14.50;99.90;;;;;;5050943;28;20070;-49
2022/10/13 13:42:22;;;;;;;36.92;32.88;;;14.40;99.90;;;;;;5046033;28;20059;-46
2022/10/13 13:44:48;;;;;;;78.45;62.20;;;14.40;99.90;;;;;;5047561;28;20686;-49
2022/10/13 13:47:16;;;;;;;31.40;26.48;;;14.40;99.90;;;;;;5049707;28;20197;-49
2022/10/13 13:49:42;;;;;;;29.98;26.27;;;14.30;99.90;;;;;;5046759;28;20040;-47
2022/10/13 13:52:07;;;;;;;26.02;23.20;;;14.30;99.90;;;;;;5036241;28;20052;-49
2022/10/13 13:54:33;;;;;;;27.45;24.75;;;14.30;99.90;;;;;;5043253;28;20044;-50
2022/10/13 13:56:58;;;;;;;31.17;23.15;;;14.30;99.90;;;;;;5045986;28;20049;-50
2022/10/13 13:59:24;;;;;;;26.42;23.77;;;14.20;99.90;;;;;;5039088;28;20037;-49
2022/10/13 14:01:50;;;;;;;28.30;25.25;;;14.30;99.90;;;;;;5037613;28;20565;-48
2022/10/13 14:04:15;;;;;;;28.75;24.33;;;14.20;99.90;;;;;;5047662;28;20049;-51
2022/10/13 14:06:41;;;;;;;31.15;25.10;;;14.20;99.90;;;;;;5048353;28;20118;-46
2022/10/13 14:09:06;;;;;;;32.40;25.13;;;14.20;99.90;;;;;;5038828;28;20037;-47
2022/10/13 14:11:32;;;;;;;31.85;25.60;;;14.20;99.90;;;;;;5042333;28;20052;-44
2022/10/13 14:14:00;;;;;;;30.83;25.63;;;14.20;99.90;;;;;;5052852;28;20075;-49
2022/10/13 14:16:26;;;;;;;29.40;25.77;;;14.10;99.90;;;;;;5054656;28;20544;-48
2022/10/13 14:18:54;;;;;;;29.90;24.88;;;14.10;99.90;;;;;;5047277;28;20412;-46
2022/10/13 14:21:20;;;;;;;29.40;24.98;;;14.10;99.90;;;;;;5045289;28;20041;-48
2022/10/13 14:23:46;;;;;;;32.00;24.77;;;14.10;99.90;;;;;;5040470;28;20036;-48
2022/10/13 14:26:12;;;;;;;27.13;24.20;;;14.00;99.90;;;;;;5042720;28;20047;-50
2022/10/13 14:28:42;;;;;;;31.50;25.48;;;14.10;99.90;;;;;;5037495;28;20573;-49
2022/10/13 14:31:09;;;;;;;31.92;25.73;;;14.10;99.90;;;;;;5047565;28;20036;-47
2022/10/13 14:33:35;;;;;;;29.92;26.13;;;14.10;99.90;;;;;;5054077;28;20040;-50
2022/10/13 14:36:02;;;;;;;33.55;24.92;;;14.00;99.90;;;;;;5053901;28;20032;-44
2022/10/13 14:38:27;;;;;;;29.05;25.88;;;14.00;99.90;;;;;;5053073;28;20040;-48
2022/10/13 14:40:58;;;;;;;32.20;27.55;;;14.00;99.90;;;;;;5053577;28;20098;-47
2022/10/13 14:43:23;;;;;;;34.97;28.17;;;13.90;99.90;;;;;;5036468;28;20063;-50
2022/10/13 14:45:49;;;;;;;33.15;27.90;;;14.00;99.90;;;;;;5049411;28;20497;-51
2022/10/13 14:48:15;;;;;;;34.25;27.25;;;13.90;99.90;;;;;;5035238;28;20041;-48
2022/10/13 14:50:40;;;;;;;30.02;26.60;;;13.90;99.90;;;;;;5037449;28;20557;-48
2022/10/13 14:53:08;;;;;;;31.98;27.70;;;13.90;99.90;;;;;;5044771;28;20486;-48
2022/10/13 14:55:34;;;;;;;35.30;28.08;;;13.90;99.90;;;;;;5045773;28;20040;-45
2022/10/13 14:58:00;;;;;;;31.90;26.80;;;13.90;99.90;;;;;;5037079;28;21260;-51
2022/10/13 15:00:25;;;;;;;31.30;26.58;;;13.80;99.90;;;;;;5049195;28;20073;-48
2022/10/13 15:02:51;;;;;;;30.85;24.65;;;13.90;99.90;;;;;;5040296;28;20044;-48
2022/10/13 15:05:17;;;;;;;30.63;25.75;;;13.80;99.90;;;;;;5037551;28;20045;-49
2022/10/13 15:07:43;;;;;;;30.02;25.77;;;13.90;99.90;;;;;;5035062;28;20063;-48
2022/10/13 15:10:09;;;;;;;28.02;24.77;;;13.80;99.90;;;;;;5037282;28;20029;-47
2022/10/13 15:12:35;;;;;;;27.25;23.48;;;13.80;99.90;;;;;;5045643;28;20044;-47
2022/10/13 15:15:00;;;;;;;26.98;22.40;;;13.70;99.90;;;;;;5042948;28;20090;-50
2022/10/13 15:17:27;;;;;;;25.85;21.05;;;13.70;99.90;;;;;;5037121;28;20754;-50
2022/10/13 15:19:52;;;;;;;24.95;21.98;;;13.70;99.90;;;;;;5046608;28;20040;-51
2022/10/13 15:22:18;;;;;;;24.45;20.98;;;13.70;99.90;;;;;;5044820;28;20059;-51
2022/10/13 15:24:44;;;;;;;21.65;19.08;;;13.70;99.90;;;;;;5039096;28;20075;-48
2022/10/13 15:27:10;;;;;;;20.95;18.13;;;13.70;99.90;;;;;;5052356;28;20044;-50
2022/10/13 15:29:35;;;;;;;21.17;17.63;;;13.70;99.90;;;;;;5038304;28;20446;-49
2022/10/13 15:32:10;;;;;;;17.85;16.05;;;13.60;99.90;;;;;;5042877;28;20036;-50
2022/10/13 15:34:38;;;;;;;18.00;15.85;;;13.70;99.90;;;;;;5040148;28;20068;-49
2022/10/13 15:37:04;;;;;;;18.20;16.02;;;13.60;99.90;;;;;;5039342;28;20037;-48
2022/10/13 15:39:29;;;;;;;16.42;14.60;;;13.60;99.90;;;;;;5040660;28;20040;-48
2022/10/13 15:41:55;;;;;;;18.15;13.85;;;13.50;99.90;;;;;;5039830;28;20036;-47
2022/10/13 15:44:24;;;;;;;17.92;14.02;;;13.50;99.90;;;;;;5041245;28;20922;-49
2022/10/13 15:46:50;;;;;;;14.95;11.48;;;13.50;99.90;;;;;;5038264;28;20045;-49
2022/10/13 15:49:15;;;;;;;13.55;10.57;;;13.50;99.90;;;;;;5041107;28;20086;-49
2022/10/13 15:51:41;;;;;;;13.25;9.77;;;13.50;99.90;;;;;;5038512;28;20045;-50
2022/10/13 15:54:07;;;;;;;13.27;9.18;;;13.50;99.90;;;;;;5049753;28;20045;-48
2022/10/13 15:56:32;;;;;;;11.65;9.65;;;13.50;99.90;;;;;;5041261;28;20546;-49
2022/10/13 15:58:58;;;;;;;13.07;9.93;;;13.50;99.90;;;;;;5040344;28;20273;-49
2022/10/13 16:01:24;;;;;;;12.68;9.73;;;13.40;99.90;;;;;;5038180;28;20041;-49
2022/10/13 16:03:53;;;;;;;13.77;9.70;;;13.40;99.90;;;;;;5039395;28;20129;-47
2022/10/13 16:06:20;;;;;;;12.60;10.30;;;13.40;99.90;;;;;;5046234;28;20044;-47
2022/10/13 16:08:47;;;;;;;16.33;12.82;;;13.40;99.90;;;;;;5045952;28;20048;-47
2022/10/13 16:11:15;;;;;;;14.18;11.20;;;13.40;99.90;;;;;;5038266;28;20048;-50
2022/10/13 16:13:45;;;;;;;15.35;12.73;;;13.40;99.90;;;;;;5056475;28;20457;-49
2022/10/13 16:16:10;;;;;;;14.25;11.30;;;13.40;99.90;;;;;;5043156;28;20048;-47
2022/10/13 16:18:39;;;;;;;12.13;10.95;;;13.40;99.90;;;;;;5036159;28;20399;-46
2022/10/13 16:21:08;;;;;;;16.50;11.15;;;13.40;99.90;;;;;;5048310;28;20348;-48
2022/10/13 16:23:34;;;;;;;14.82;11.52;;;13.30;99.90;;;;;;5055303;28;20051;-48
2022/10/13 16:26:01;;;;;;;13.90;10.32;;;13.30;99.90;;;;;;5055109;28;20041;-46
2022/10/13 16:28:27;;;;;;;13.38;11.23;;;13.20;99.90;;;;;;5039949;28;20125;-47
2022/10/13 16:30:52;;;;;;;13.35;12.05;;;13.20;99.90;;;;;;5055490;28;20040;-49
2022/10/13 16:33:18;;;;;;;17.48;14.38;;;13.10;99.90;;;;;;5036427;28;20041;-47
2022/10/13 16:35:44;;;;;;;20.88;16.10;;;13.00;99.90;;;;;;5040792;28;20040;-46
2022/10/13 16:38:10;;;;;;;21.10;15.75;;;12.90;99.90;;;;;;5054656;28;20102;-46
2022/10/13 16:40:38;;;;;;;16.63;14.93;;;12.90;99.90;;;;;;5056382;28;20094;-46
2022/10/13 16:43:07;;;;;;;17.55;13.25;;;12.80;99.90;;;;;;5042261;28;20486;-47
2022/10/13 16:45:32;;;;;;;15.38;13.63;;;12.70;99.90;;;;;;5055287;28;20041;-49
2022/10/13 16:47:58;;;;;;;17.30;14.25;;;12.60;99.90;;;;;;5055378;28;20098;-48
2022/10/13 16:50:24;;;;;;;19.30;17.35;;;12.60;99.90;;;;;;5048669;28;20090;-47
2022/10/13 16:52:49;;;;;;;25.40;23.00;;;12.50;99.90;;;;;;5056344;28;20040;-49
2022/10/13 16:55:15;;;;;;;20.38;18.33;;;12.50;99.90;;;;;;5057706;28;20040;-46
2022/10/13 16:57:43;;;;;;;24.02;21.50;;;12.50;99.90;;;;;;5049287;28;20051;-48
2022/10/13 17:00:09;;;;;;;23.40;21.10;;;12.40;99.90;;;;;;5051776;28;20036;-49
2022/10/13 17:02:35;;;;;;;20.88;18.77;;;12.40;99.90;;;;;;5038996;28;20045;-49
2022/10/13 17:05:00;;;;;;;17.38;15.68;;;12.30;99.90;;;;;;5036932;28;20044;-50
2022/10/13 17:07:26;;;;;;;21.27;19.08;;;12.30;99.90;;;;;;5039169;28;20117;-51
2022/10/13 17:09:52;;;;;;;20.55;18.25;;;12.30;99.90;;;;;;5056464;28;20075;-51
2022/10/13 17:12:17;;;;;;;19.73;17.75;;;12.30;99.90;;;;;;5054518;28;20049;-50
2022/10/13 17:14:43;;;;;;;23.38;19.35;;;12.30;99.90;;;;;;5045733;28;20067;-49
2022/10/13 17:17:09;;;;;;;23.48;20.95;;;12.20;99.90;;;;;;5054212;28;20337;-51
2022/10/13 17:19:34;;;;;;;24.20;20.33;;;12.20;99.90;;;;;;5039881;28;20483;-50
2022/10/13 17:22:00;;;;;;;25.70;21.73;;;12.10;99.90;;;;;;5046664;28;20478;-44
2022/10/13 17:24:26;;;;;;;24.02;21.35;;;12.10;99.90;;;;;;5059550;28;20472;-43
2022/10/13 17:26:51;;;;;;;23.70;20.58;;;12.10;99.90;;;;;;5052462;28;20474;-46
2022/10/13 17:29:17;;;;;;;22.20;19.92;;;12.00;99.90;;;;;;5049163;28;20570;-46
2022/10/13 17:31:43;;;;;;;25.25;20.42;;;12.00;99.90;;;;;;5057173;28;20048;-47
2022/10/13 17:34:08;;;;;;;19.25;17.30;;;12.00;99.90;;;;;;5059132;28;20056;-47
2022/10/13 17:36:34;;;;;;;17.70;15.73;;;12.00;99.90;;;;;;5058917;28;20053;-46
2022/10/13 17:39:05;;;;;;;21.73;17.42;;;12.00;99.90;;;;;;5058726;28;20037;-45
2022/10/13 17:41:31;;;;;;;20.55;18.20;;;12.00;99.90;;;;;;5059325;28;20123;-44
2022/10/13 17:43:57;;;;;;;19.92;17.83;;;12.00;99.90;;;;;;5058938;28;20159;-46
2022/10/13 17:46:25;;;;;;;21.85;17.73;;;12.00;99.90;;;;;;5058609;28;20387;-49
2022/10/13 17:48:51;;;;;;;22.02;18.88;;;12.00;99.90;;;;;;5058597;28;20056;-43
2022/10/13 17:51:21;;;;;;;27.10;19.42;;;12.00;99.90;;;;;;5046979;28;20044;-43
2022/10/13 17:53:48;;;;;;;23.70;19.83;;;12.00;99.90;;;;;;5053520;28;20087;-42
2022/10/13 17:56:15;;;;;;;25.50;22.73;;;12.00;99.90;;;;;;5046681;28;20538;-46
2022/10/13 17:58:42;;;;;;;25.02;22.40;;;12.00;99.90;;;;;;5048880;28;20127;-44
2022/10/13 18:01:30;;;;;;;25.02;21.67;;;12.10;99.90;;;;;;5049025;28;20032;-44
2022/10/13 18:03:58;;;;;;;32.28;28.95;;;12.10;99.90;;;;;;5054715;28;20037;-46
2022/10/13 18:06:23;;;;;;;25.60;22.83;;;12.10;99.90;;;;;;5032326;28;20056;-47
2022/10/13 18:08:50;;;;;;;23.90;21.40;;;12.10;99.90;;;;;;5050180;28;20094;-43
2022/10/13 18:11:17;;;;;;;25.75;22.90;;;12.10;99.90;;;;;;5051525;28;20493;-45
2022/10/13 18:13:44;;;;;;;23.42;21.02;;;12.20;99.90;;;;;;5050083;28;20051;-44
2022/10/13 18:16:18;;;;;;;22.80;20.38;;;12.20;99.90;;;;;;5057134;28;20041;-46
2022/10/13 18:18:44;;;;;;;23.00;20.77;;;12.10;99.90;;;;;;5053876;28;20567;-47
2022/10/13 18:21:15;;;;;;;24.17;20.75;;;12.20;99.90;;;;;;5055698;28;20654;-47
2022/10/13 18:23:40;;;;;;;23.83;20.95;;;12.20;99.90;;;;;;5046780;28;20531;-47
2022/10/13 18:26:11;;;;;;;22.60;20.15;;;12.20;99.90;;;;;;5051875;28;20040;-48
2022/10/13 18:28:42;;;;;;;22.10;19.80;;;12.20;99.90;;;;;;5044958;28;20041;-46
2022/10/13 18:31:22;;;;;;;22.30;20.00;;;12.20;99.90;;;;;;5043839;28;20411;-45
2022/10/13 18:33:48;;;;;;;22.63;19.65;;;12.20;99.90;;;;;;5051086;28;20602;-48
2022/10/13 18:36:24;;;;;;;19.85;17.65;;;12.20;99.90;;;;;;5054579;28;20127;-45
2022/10/13 18:38:51;;;;;;;20.38;18.48;;;12.20;99.90;;;;;;5058640;28;20170;-43
2022/10/13 18:41:19;;;;;;;21.25;17.70;;;12.30;99.90;;;;;;5051427;28;20056;-49
2022/10/13 18:43:44;;;;;;;22.10;18.73;;;12.20;99.90;;;;;;5048588;28;20124;-45
2022/10/13 18:46:10;;;;;;;20.02;17.92;;;12.30;99.90;;;;;;5054114;28;20042;-43
2022/10/13 18:48:36;;;;;;;19.88;17.77;;;12.20;99.90;;;;;;5058681;28;20055;-48
2022/10/13 18:51:06;;;;;;;19.80;18.00;;;12.20;99.90;;;;;;5044925;28;20446;-46
2022/10/13 18:53:35;;;;;;;20.40;18.40;;;12.20;99.90;;;;;;5037788;28;20051;-47
2022/10/13 18:56:07;;;;;;;22.30;19.73;;;12.20;99.90;;;;;;5037902;28;20037;-43
2022/10/13 18:58:33;;;;;;;19.92;17.88;;;12.20;99.90;;;;;;5037949;28;20075;-43
2022/10/13 19:01:05;;;;;;;19.85;17.73;;;12.10;99.90;;;;;;5044912;28;20425;-44
2022/10/13 19:03:32;;;;;;;21.45;19.08;;;12.20;99.90;;;;;;5039084;28;20051;-42
2022/10/13 19:05:58;;;;;;;22.83;20.23;;;12.10;99.90;;;;;;5046285;28;20068;-48
2022/10/13 19:08:24;;;;;;;22.27;20.00;;;12.20;99.90;;;;;;5057306;28;20174;-47
2022/10/13 19:10:50;;;;;;;25.05;20.67;;;12.10;99.90;;;;;;5053320;28;20056;-46
2022/10/13 19:13:16;;;;;;;22.35;19.88;;;12.10;99.90;;;;;;5044478;28;20033;-44
2022/10/13 19:15:41;;;;;;;22.08;19.25;;;12.10;99.90;;;;;;5056435;28;20067;-46
2022/10/13 19:18:07;;;;;;;23.17;20.75;;;12.10;99.90;;;;;;5057264;28;20551;-50
2022/10/13 19:20:33;;;;;;;24.13;21.55;;;12.10;99.90;;;;;;5057474;28;20123;-47
2022/10/13 19:22:59;;;;;;;24.48;22.08;;;12.10;99.90;;;;;;5056710;28;20482;-45
2022/10/13 19:25:25;;;;;;;22.42;20.23;;;12.10;99.90;;;;;;5057112;28;20135;-47
2022/10/13 19:27:51;;;;;;;25.52;22.42;;;12.10;99.90;;;;;;5055832;28;20119;-43
2022/10/13 19:30:18;;;;;;;24.08;21.50;;;12.10;99.90;;;;;;5056178;28;20143;-47
2022/10/13 19:32:44;;;;;;;23.45;21.05;;;12.00;99.90;;;;;;5055506;28;20040;-48
2022/10/13 19:35:10;;;;;;;25.20;21.35;;;12.00;99.90;;;;;;5056781;28;20033;-46
2022/10/13 19:37:36;;;;;;;24.52;21.90;;;12.00;99.90;;;;;;5055601;28;20482;-43
2022/10/13 19:40:03;;;;;;;27.58;24.38;;;12.00;99.90;;;;;;5048484;28;20391;-44
2022/10/13 19:42:29;;;;;;;26.65;23.83;;;12.00;99.90;;;;;;5039111;28;20448;-48
2022/10/13 19:44:55;;;;;;;26.50;23.55;;;12.00;99.90;;;;;;5048507;28;20430;-47
2022/10/13 19:47:20;;;;;;;25.13;22.33;;;11.90;99.90;;;;;;5054275;28;20048;-43
2022/10/13 19:49:46;;;;;;;28.05;24.15;;;11.90;99.90;;;;;;5056601;28;20072;-46
2022/10/13 19:52:12;;;;;;;27.85;24.80;;;11.90;99.90;;;;;;5043585;28;20094;-46
2022/10/13 19:54:37;;;;;;;30.20;25.30;;;12.00;99.90;;;;;;5056479;28;20042;-44
2022/10/13 19:57:03;;;;;;;27.20;24.27;;;11.90;99.90;;;;;;5042552;28;20523;-47
2022/10/13 19:59:29;;;;;;;29.05;24.45;;;11.90;99.90;;;;;;5036458;28;20469;-45
2022/10/13 20:01:55;;;;;;;25.42;22.67;;;11.90;99.90;;;;;;5051345;28;20378;-47
2022/10/13 20:04:21;;;;;;;29.02;24.73;;;11.90;99.90;;;;;;5056739;28;20049;-43
2022/10/13 20:06:50;;;;;;;31.67;27.73;;;11.90;99.90;;;;;;5056521;28;20044;-43
2022/10/13 20:09:17;;;;;;;27.27;24.50;;;11.90;99.90;;;;;;5056319;28;20041;-45
2022/10/13 20:11:45;;;;;;;32.85;29.35;;;11.90;99.90;;;;;;5055460;28;20489;-44
2022/10/13 20:14:11;;;;;;;31.60;28.30;;;12.00;99.90;;;;;;5055473;28;20036;-43
2022/10/13 20:16:37;;;;;;;31.10;27.45;;;12.00;99.90;;;;;;5036518;28;20059;-48
2022/10/13 20:19:03;;;;;;;31.58;27.05;;;12.00;99.90;;;;;;5055840;28;20492;-47
2022/10/13 20:21:29;;;;;;;34.35;28.75;;;12.00;99.90;;;;;;5056013;28;20273;-49
2022/10/13 20:23:56;;;;;;;43.67;31.70;;;12.00;99.90;;;;;;5055735;28;20040;-44
2022/10/13 20:26:22;;;;;;;39.35;31.05;;;12.00;99.90;;;;;;5053845;28;20131;-44
2022/10/13 20:28:49;;;;;;;39.17;32.17;;;12.00;99.90;;;;;;5064336;28;20056;-47
2022/10/13 20:31:17;;;;;;;57.15;47.95;;;12.00;99.90;;;;;;5039710;28;20041;-48
2022/10/13 20:33:43;;;;;;;44.00;37.80;;;12.10;99.90;;;;;;5056044;28;20041;-46
2022/10/13 20:36:12;;;;;;;42.00;35.53;;;12.10;99.90;;;;;;5053602;28;20067;-47
2022/10/13 20:38:38;;;;;;;40.65;35.28;;;12.10;99.90;;;;;;5054780;28;20044;-47
2022/10/13 20:41:05;;;;;;;128.55;114.65;;;12.10;99.90;;;;;;5055305;28;20339;-46
2022/10/13 20:43:30;;;;;;;46.13;37.42;;;12.10;99.90;;;;;;5044775;28;20514;-45
2022/10/13 20:46:00;;;;;;;46.35;36.83;;;12.10;99.90;;;;;;5041920;28;20123;-45
2022/10/13 20:48:30;;;;;;;47.00;36.33;;;12.10;99.90;;;;;;5054891;28;20091;-49
2022/10/13 20:50:59;;;;;;;47.60;36.10;;;12.10;99.90;;;;;;5054465;28;20047;-47
2022/10/13 20:53:25;;;;;;;52.63;41.38;;;12.10;99.90;;;;;;5055396;28;20048;-43
2022/10/13 20:55:57;;;;;;;40.95;34.80;;;12.10;99.90;;;;;;5052819;28;20044;-47
2022/10/13 20:58:24;;;;;;;44.73;36.13;;;12.10;99.90;;;;;;5054301;28;20032;-48
2022/10/13 21:00:50;;;;;;;41.92;36.72;;;12.10;99.90;;;;;;5046321;28;20122;-44
2022/10/13 21:03:18;;;;;;;55.10;37.38;;;12.10;99.90;;;;;;5048657;28;20037;-47
2022/10/13 21:05:44;;;;;;;57.90;50.03;;;12.10;99.90;;;;;;5054623;28;20049;-44
2022/10/13 21:08:10;;;;;;;40.38;34.90;;;12.10;99.90;;;;;;5055384;28;20097;-44
2022/10/13 21:10:35;;;;;;;44.58;34.53;;;12.10;99.90;;;;;;5052360;28;20040;-45
2022/10/13 21:13:01;;;;;;;45.33;36.05;;;12.10;99.90;;;;;;5054184;28;20044;-47
2022/10/13 21:15:27;;;;;;;44.15;34.58;;;12.10;99.90;;;;;;5051782;28;20044;-44
2022/10/13 21:17:53;;;;;;;45.42;35.38;;;12.10;99.90;;;;;;5055264;28;20297;-44
2022/10/13 21:20:19;;;;;;;44.60;33.67;;;12.00;99.90;;;;;;5054711;28;20054;-44
2022/10/13 21:22:44;;;;;;;37.05;31.70;;;12.00;99.90;;;;;;5055441;28;20049;-47
2022/10/13 21:25:10;;;;;;;45.72;34.72;;;12.00;99.90;;;;;;5055065;28;20101;-44
2022/10/13 21:27:36;;;;;;;44.83;32.88;;;12.00;99.90;;;;;;5051503;28;20045;-45
2022/10/13 21:30:03;;;;;;;44.42;34.22;;;12.00;99.90;;;;;;5051823;28;20040;-47
2022/10/13 21:32:29;;;;;;;39.90;32.22;;;11.90;99.90;;;;;;5053233;28;20064;-47
2022/10/13 21:34:55;;;;;;;41.80;33.83;;;11.90;99.90;;;;;;5049018;28;20080;-47
2022/10/13 21:37:21;;;;;;;42.58;34.17;;;12.00;99.90;;;;;;5048491;28;20449;-45
2022/10/13 21:39:48;;;;;;;40.15;33.20;;;11.90;99.90;;;;;;5054525;28;20044;-45